sensor_id;sensor_type;location;lat;lon;timestamp;temperature;humidity
52125;DHT22;38119;52.710;6.398;2022-10-31T00:01:23;13.60;99.90
52125;DHT22;38119;52.710;6.398;2022-10-31T00:03:49;13.50;99.90
52125;DHT22;38119;52.710;6.398;2022-10-31T00:06:15;13.60;99.90
52125;DHT22;38119;52.710;6.398;2022-10-31T00:08:45;13.50;99.90
52125;DHT22;38119;52.710;6.398;2022-10-31T00:11:11;13.50;99.90
52125;DHT22;38119;52.710;6.398;2022-10-31T00:13:36;13.40;99.90
52125;DHT22;38119;52.710;6.398;2022-10-31T00:16:02;13.30;99.90
52125;DHT22;38119;52.710;6.398;2022-10-31T00:18:28;13.30;99.90
52125;DHT22;38119;52.710;6.398;2022-10-31T00:21:01;13.30;99.90
52125;DHT22;38119;52.710;6.398;2022-10-31T00:23:27;13.20;99.90
52125;DHT22;38119;52.710;6.398;2022-10-31T00:25:52;13.20;99.90
52125;DHT22;38119;52.710;6.398;2022-10-31T00:28:18;13.20;99.90
52125;DHT22;38119;52.710;6.398;2022-10-31T00:30:43;13.20;99.90
52125;DHT22;38119;52.710;6.398;2022-10-31T00:33:09;13.20;99.90
52125;DHT22;38119;52.710;6.398;2022-10-31T00:35:34;13.20;99.90
52125;DHT22;38119;52.710;6.398;2022-10-31T00:38:00;13.20;99.90
52125;DHT22;38119;52.710;6.398;2022-10-31T00:40:26;13.20;99.90
52125;DHT22;38119;52.710;6.398;2022-10-31T00:42:51;13.20;99.90
52125;DHT22;38119;52.710;6.398;2022-10-31T00:45:17;13.10;99.90
52125;DHT22;38119;52.710;6.398;2022-10-31T00:47:42;13.10;99.90
52125;DHT22;38119;52.710;6.398;2022-10-31T00:50:08;13.10;99.90
52125;DHT22;38119;52.710;6.398;2022-10-31T00:52:34;13.10;99.90
52125;DHT22;38119;52.710;6.398;2022-10-31T00:55:00;13.10;99.90
52125;DHT22;38119;52.710;6.398;2022-10-31T00:57:25;13.10;99.90
52125;DHT22;38119;52.710;6.398;2022-10-31T00:59:51;13.10;99.90
52125;DHT22;38119;52.710;6.398;2022-10-31T01:02:17;13.00;99.90
52125;DHT22;38119;52.710;6.398;2022-10-31T01:04:42;13.00;99.90
52125;DHT22;38119;52.710;6.398;2022-10-31T01:07:08;13.00;99.90
52125;DHT22;38119;52.710;6.398;2022-10-31T01:09:33;13.00;99.90
52125;DHT22;38119;52.710;6.398;2022-10-31T01:11:59;13.00;99.90
52125;DHT22;38119;52.710;6.398;2022-10-31T01:14:25;13.00;99.90
52125;DHT22;38119;52.710;6.398;2022-10-31T01:16:50;13.00;99.90
52125;DHT22;38119;52.710;6.398;2022-10-31T01:19:16;12.90;99.90
52125;DHT22;38119;52.710;6.398;2022-10-31T01:21:41;12.90;99.90
52125;DHT22;38119;52.710;6.398;2022-10-31T01:24:08;12.90;99.90
52125;DHT22;38119;52.710;6.398;2022-10-31T01:26:34;13.00;99.90
52125;DHT22;38119;52.710;6.398;2022-10-31T01:29:03;12.90;99.90
52125;DHT22;38119;52.710;6.398;2022-10-31T01:31:31;12.80;99.90
52125;DHT22;38119;52.710;6.398;2022-10-31T01:33:57;12.90;99.90
52125;DHT22;38119;52.710;6.398;2022-10-31T01:38:51;12.90;99.90
52125;DHT22;38119;52.710;6.398;2022-10-31T01:41:19;12.80;99.90
52125;DHT22;38119;52.710;6.398;2022-10-31T01:46:13;12.80;99.90
52125;DHT22;38119;52.710;6.398;2022-10-31T01:48:40;12.70;99.90
52125;DHT22;38119;52.710;6.398;2022-10-31T01:51:07;12.80;99.90
52125;DHT22;38119;52.710;6.398;2022-10-31T01:53:35;12.70;99.90
52125;DHT22;38119;52.710;6.398;2022-10-31T01:56:01;12.70;99.90
52125;DHT22;38119;52.710;6.398;2022-10-31T01:58:28;12.70;99.90
52125;DHT22;38119;52.710;6.398;2022-10-31T02:00:58;12.70;99.90
52125;DHT22;38119;52.710;6.398;2022-10-31T02:03:25;12.70;99.90
52125;DHT22;38119;52.710;6.398;2022-10-31T02:05:53;12.60;99.90
52125;DHT22;38119;52.710;6.398;2022-10-31T02:08:30;12.60;99.90
52125;DHT22;38119;52.710;6.398;2022-10-31T02:10:57;12.60;99.90
52125;DHT22;38119;52.710;6.398;2022-10-31T02:13:24;12.50;99.90
52125;DHT22;38119;52.710;6.398;2022-10-31T02:15:55;12.50;99.90
52125;DHT22;38119;52.710;6.398;2022-10-31T02:18:22;12.50;99.90
52125;DHT22;38119;52.710;6.398;2022-10-31T02:31:29;12.30;99.90
52125;DHT22;38119;52.710;6.398;2022-10-31T02:34:06;12.30;99.90
52125;DHT22;38119;52.710;6.398;2022-10-31T02:39:27;12.30;99.90
52125;DHT22;38119;52.710;6.398;2022-10-31T02:49:28;12.20;99.90
52125;DHT22;38119;52.710;6.398;2022-10-31T02:51:55;12.20;99.90
52125;DHT22;38119;52.710;6.398;2022-10-31T02:54:25;12.10;99.90
52125;DHT22;38119;52.710;6.398;2022-10-31T02:57:03;12.10;99.90
52125;DHT22;38119;52.710;6.398;2022-10-31T02:59:33;12.10;99.90
52125;DHT22;38119;52.710;6.398;2022-10-31T03:02:05;12.00;99.90
52125;DHT22;38119;52.710;6.398;2022-10-31T03:07:28;12.00;99.90
52125;DHT22;38119;52.710;6.398;2022-10-31T03:12:40;12.00;99.90
52125;DHT22;38119;52.710;6.398;2022-10-31T03:15:26;11.90;99.90
52125;DHT22;38119;52.710;6.398;2022-10-31T03:20:27;11.90;99.90
52125;DHT22;38119;52.710;6.398;2022-10-31T03:22:55;11.90;99.90
52125;DHT22;38119;52.710;6.398;2022-10-31T03:25:22;11.90;99.90
52125;DHT22;38119;52.710;6.398;2022-10-31T03:27:49;11.80;99.90
52125;DHT22;38119;52.710;6.398;2022-10-31T03:30:16;11.80;99.90
52125;DHT22;38119;52.710;6.398;2022-10-31T03:32:49;11.70;99.90
52125;DHT22;38119;52.710;6.398;2022-10-31T03:35:19;11.70;99.90
52125;DHT22;38119;52.710;6.398;2022-10-31T03:37:47;11.70;99.90
52125;DHT22;38119;52.710;6.398;2022-10-31T03:40:16;11.60;99.90
52125;DHT22;38119;52.710;6.398;2022-10-31T03:42:50;11.60;99.90
52125;DHT22;38119;52.710;6.398;2022-10-31T03:45:22;11.60;99.90
52125;DHT22;38119;52.710;6.398;2022-10-31T03:47:48;11.60;99.90
52125;DHT22;38119;52.710;6.398;2022-10-31T03:50:15;11.60;99.90
52125;DHT22;38119;52.710;6.398;2022-10-31T03:52:55;11.60;99.90
52125;DHT22;38119;52.710;6.398;2022-10-31T03:55:47;11.60;99.90
52125;DHT22;38119;52.710;6.398;2022-10-31T03:58:22;11.60;99.90
52125;DHT22;38119;52.710;6.398;2022-10-31T04:00:51;11.50;99.90
52125;DHT22;38119;52.710;6.398;2022-10-31T04:03:26;11.50;99.90
52125;DHT22;38119;52.710;6.398;2022-10-31T04:05:54;11.50;99.90
52125;DHT22;38119;52.710;6.398;2022-10-31T04:08:24;11.40;99.90
52125;DHT22;38119;52.710;6.398;2022-10-31T04:10:52;11.40;99.90
52125;DHT22;38119;52.710;6.398;2022-10-31T04:13:24;11.30;99.90
52125;DHT22;38119;52.710;6.398;2022-10-31T04:15:52;11.30;99.90
52125;DHT22;38119;52.710;6.398;2022-10-31T04:18:17;11.20;99.90
52125;DHT22;38119;52.710;6.398;2022-10-31T04:20:43;11.20;99.90
52125;DHT22;38119;52.710;6.398;2022-10-31T04:23:20;11.20;99.90
52125;DHT22;38119;52.710;6.398;2022-10-31T04:25:45;11.20;99.90
52125;DHT22;38119;52.710;6.398;2022-10-31T04:28:11;11.10;99.90
52125;DHT22;38119;52.710;6.398;2022-10-31T04:30:37;11.10;99.90
52125;DHT22;38119;52.710;6.398;2022-10-31T04:33:02;11.10;99.90
52125;DHT22;38119;52.710;6.398;2022-10-31T04:35:28;11.10;99.90
52125;DHT22;38119;52.710;6.398;2022-10-31T04:37:53;11.10;99.90
52125;DHT22;38119;52.710;6.398;2022-10-31T04:40:19;11.10;99.90
52125;DHT22;38119;52.710;6.398;2022-10-31T04:42:44;11.10;99.90
52125;DHT22;38119;52.710;6.398;2022-10-31T04:45:10;11.00;99.90
52125;DHT22;38119;52.710;6.398;2022-10-31T04:47:35;11.10;99.90
52125;DHT22;38119;52.710;6.398;2022-10-31T04:50:02;11.10;99.90
52125;DHT22;38119;52.710;6.398;2022-10-31T04:52:27;11.00;99.90
52125;DHT22;38119;52.710;6.398;2022-10-31T04:54:53;11.10;99.90
52125;DHT22;38119;52.710;6.398;2022-10-31T04:57:19;11.00;99.90
52125;DHT22;38119;52.710;6.398;2022-10-31T04:59:44;11.00;99.90
52125;DHT22;38119;52.710;6.398;2022-10-31T05:02:10;11.00;99.90
52125;DHT22;38119;52.710;6.398;2022-10-31T05:04:35;11.00;99.90
52125;DHT22;38119;52.710;6.398;2022-10-31T05:07:01;10.90;99.90
52125;DHT22;38119;52.710;6.398;2022-10-31T05:09:26;10.90;99.90
52125;DHT22;38119;52.710;6.398;2022-10-31T05:11:52;10.90;99.90
52125;DHT22;38119;52.710;6.398;2022-10-31T05:14:18;10.80;99.90
52125;DHT22;38119;52.710;6.398;2022-10-31T05:16:43;10.80;99.90
52125;DHT22;38119;52.710;6.398;2022-10-31T05:19:09;10.70;99.90
52125;DHT22;38119;52.710;6.398;2022-10-31T05:21:34;10.80;99.90
52125;DHT22;38119;52.710;6.398;2022-10-31T05:24:00;10.80;99.90
52125;DHT22;38119;52.710;6.398;2022-10-31T05:26:26;10.80;99.90
52125;DHT22;38119;52.710;6.398;2022-10-31T05:28:51;10.80;99.90
52125;DHT22;38119;52.710;6.398;2022-10-31T05:31:17;10.80;99.90
52125;DHT22;38119;52.710;6.398;2022-10-31T05:33:42;10.80;99.90
52125;DHT22;38119;52.710;6.398;2022-10-31T05:36:08;10.80;99.90
52125;DHT22;38119;52.710;6.398;2022-10-31T05:38:37;10.80;99.90
52125;DHT22;38119;52.710;6.398;2022-10-31T05:41:02;10.80;99.90
52125;DHT22;38119;52.710;6.398;2022-10-31T05:43:28;10.70;99.90
52125;DHT22;38119;52.710;6.398;2022-10-31T05:45:55;10.70;99.90
52125;DHT22;38119;52.710;6.398;2022-10-31T05:48:21;10.70;99.90
52125;DHT22;38119;52.710;6.398;2022-10-31T05:50:48;10.60;99.90
52125;DHT22;38119;52.710;6.398;2022-10-31T05:53:14;10.60;99.90
52125;DHT22;38119;52.710;6.398;2022-10-31T05:55:41;10.70;99.90
52125;DHT22;38119;52.710;6.398;2022-10-31T05:58:07;10.70;99.90
52125;DHT22;38119;52.710;6.398;2022-10-31T06:00:33;10.70;99.90
52125;DHT22;38119;52.710;6.398;2022-10-31T06:03:07;10.70;99.90
52125;DHT22;38119;52.710;6.398;2022-10-31T06:05:33;10.70;99.90
52125;DHT22;38119;52.710;6.398;2022-10-31T06:07:59;10.70;99.90
52125;DHT22;38119;52.710;6.398;2022-10-31T06:10:25;10.70;99.90
52125;DHT22;38119;52.710;6.398;2022-10-31T06:12:51;10.70;99.90
52125;DHT22;38119;52.710;6.398;2022-10-31T06:15:17;10.70;99.90
52125;DHT22;38119;52.710;6.398;2022-10-31T06:17:43;10.70;99.90
52125;DHT22;38119;52.710;6.398;2022-10-31T06:20:09;10.60;99.90
52125;DHT22;38119;52.710;6.398;2022-10-31T06:22:35;10.60;99.90
52125;DHT22;38119;52.710;6.398;2022-10-31T06:25:01;10.60;99.90
52125;DHT22;38119;52.710;6.398;2022-10-31T06:27:27;10.60;99.90
52125;DHT22;38119;52.710;6.398;2022-10-31T06:29:53;10.50;99.90
52125;DHT22;38119;52.710;6.398;2022-10-31T06:32:18;10.50;99.90
52125;DHT22;38119;52.710;6.398;2022-10-31T06:34:44;10.50;99.90
52125;DHT22;38119;52.710;6.398;2022-10-31T06:37:13;10.50;99.90
52125;DHT22;38119;52.710;6.398;2022-10-31T06:39:39;10.40;99.90
52125;DHT22;38119;52.710;6.398;2022-10-31T06:42:05;10.40;99.90
52125;DHT22;38119;52.710;6.398;2022-10-31T06:44:31;10.40;99.90
52125;DHT22;38119;52.710;6.398;2022-10-31T06:46:57;10.30;99.90
52125;DHT22;38119;52.710;6.398;2022-10-31T06:49:23;10.40;99.90
52125;DHT22;38119;52.710;6.398;2022-10-31T06:51:49;10.30;99.90
52125;DHT22;38119;52.710;6.398;2022-10-31T06:54:15;10.10;99.90
52125;DHT22;38119;52.710;6.398;2022-10-31T06:56:40;10.20;99.90
52125;DHT22;38119;52.710;6.398;2022-10-31T06:59:06;10.20;99.90
52125;DHT22;38119;52.710;6.398;2022-10-31T07:01:32;10.20;99.90
52125;DHT22;38119;52.710;6.398;2022-10-31T07:03:57;10.20;99.90
52125;DHT22;38119;52.710;6.398;2022-10-31T07:06:23;10.20;99.90
52125;DHT22;38119;52.710;6.398;2022-10-31T07:08:48;10.20;99.90
52125;DHT22;38119;52.710;6.398;2022-10-31T07:11:14;10.20;99.90
52125;DHT22;38119;52.710;6.398;2022-10-31T07:13:40;10.20;99.90
52125;DHT22;38119;52.710;6.398;2022-10-31T07:16:06;10.20;99.90
52125;DHT22;38119;52.710;6.398;2022-10-31T07:18:32;10.20;99.90
52125;DHT22;38119;52.710;6.398;2022-10-31T07:20:58;10.20;99.90
52125;DHT22;38119;52.710;6.398;2022-10-31T07:23:23;10.20;99.90
52125;DHT22;38119;52.710;6.398;2022-10-31T07:25:57;10.20;99.90
52125;DHT22;38119;52.710;6.398;2022-10-31T07:28:24;10.20;99.90
52125;DHT22;38119;52.710;6.398;2022-10-31T07:30:51;10.20;99.90
52125;DHT22;38119;52.710;6.398;2022-10-31T07:33:17;10.20;99.90
52125;DHT22;38119;52.710;6.398;2022-10-31T07:35:43;10.20;99.90
52125;DHT22;38119;52.710;6.398;2022-10-31T07:38:11;10.20;99.90
52125;DHT22;38119;52.710;6.398;2022-10-31T07:40:37;10.20;99.90
52125;DHT22;38119;52.710;6.398;2022-10-31T07:43:02;10.20;99.90
52125;DHT22;38119;52.710;6.398;2022-10-31T07:45:28;10.30;99.90
52125;DHT22;38119;52.710;6.398;2022-10-31T07:47:54;10.30;99.90
52125;DHT22;38119;52.710;6.398;2022-10-31T07:50:22;10.30;99.90
52125;DHT22;38119;52.710;6.398;2022-10-31T07:52:57;10.40;99.90
52125;DHT22;38119;52.710;6.398;2022-10-31T07:55:22;10.40;99.90
52125;DHT22;38119;52.710;6.398;2022-10-31T07:57:59;10.50;99.90
52125;DHT22;38119;52.710;6.398;2022-10-31T08:00:25;10.50;99.90
52125;DHT22;38119;52.710;6.398;2022-10-31T08:03:04;10.60;99.90
52125;DHT22;38119;52.710;6.398;2022-10-31T08:05:32;10.60;99.90
52125;DHT22;38119;52.710;6.398;2022-10-31T08:07:58;10.70;99.90
52125;DHT22;38119;52.710;6.398;2022-10-31T08:10:24;10.70;99.90
52125;DHT22;38119;52.710;6.398;2022-10-31T08:12:58;10.80;99.90
52125;DHT22;38119;52.710;6.398;2022-10-31T08:15:25;10.80;99.90
52125;DHT22;38119;52.710;6.398;2022-10-31T08:17:51;10.90;99.90
52125;DHT22;38119;52.710;6.398;2022-10-31T08:20:17;10.90;99.90
52125;DHT22;38119;52.710;6.398;2022-10-31T08:22:42;10.90;99.90
52125;DHT22;38119;52.710;6.398;2022-10-31T08:25:08;11.00;99.90
52125;DHT22;38119;52.710;6.398;2022-10-31T08:27:34;11.00;99.90
52125;DHT22;38119;52.710;6.398;2022-10-31T08:29:59;11.00;99.90
52125;DHT22;38119;52.710;6.398;2022-10-31T08:32:25;11.10;99.90
52125;DHT22;38119;52.710;6.398;2022-10-31T08:34:51;11.10;99.90
52125;DHT22;38119;52.710;6.398;2022-10-31T08:37:16;11.10;99.90
52125;DHT22;38119;52.710;6.398;2022-10-31T08:39:46;11.20;99.90
52125;DHT22;38119;52.710;6.398;2022-10-31T08:42:12;11.30;99.90
52125;DHT22;38119;52.710;6.398;2022-10-31T08:44:38;11.20;99.90
52125;DHT22;38119;52.710;6.398;2022-10-31T08:47:04;11.30;99.90
52125;DHT22;38119;52.710;6.398;2022-10-31T08:49:30;11.30;99.90
52125;DHT22;38119;52.710;6.398;2022-10-31T08:51:55;11.30;99.90
52125;DHT22;38119;52.710;6.398;2022-10-31T08:54:21;11.30;99.90
52125;DHT22;38119;52.710;6.398;2022-10-31T08:56:47;11.30;99.90
52125;DHT22;38119;52.710;6.398;2022-10-31T08:59:12;11.40;99.90
52125;DHT22;38119;52.710;6.398;2022-10-31T09:01:38;11.40;99.90
52125;DHT22;38119;52.710;6.398;2022-10-31T09:04:04;11.40;99.90
52125;DHT22;38119;52.710;6.398;2022-10-31T09:06:29;11.40;99.90
52125;DHT22;38119;52.710;6.398;2022-10-31T09:08:55;11.40;99.90
52125;DHT22;38119;52.710;6.398;2022-10-31T09:11:20;11.50;99.90
52125;DHT22;38119;52.710;6.398;2022-10-31T09:13:46;11.50;99.90
52125;DHT22;38119;52.710;6.398;2022-10-31T09:16:11;11.60;99.90
52125;DHT22;38119;52.710;6.398;2022-10-31T09:18:37;11.60;99.90
52125;DHT22;38119;52.710;6.398;2022-10-31T09:21:03;11.80;99.90
52125;DHT22;38119;52.710;6.398;2022-10-31T09:23:29;11.80;99.90
52125;DHT22;38119;52.710;6.398;2022-10-31T09:25:55;11.90;99.90
52125;DHT22;38119;52.710;6.398;2022-10-31T09:28:23;11.90;99.90
52125;DHT22;38119;52.710;6.398;2022-10-31T09:30:51;12.10;99.90
52125;DHT22;38119;52.710;6.398;2022-10-31T09:33:17;12.10;99.90
52125;DHT22;38119;52.710;6.398;2022-10-31T09:35:43;12.10;99.90
52125;DHT22;38119;52.710;6.398;2022-10-31T09:40:50;12.30;99.90
52125;DHT22;38119;52.710;6.398;2022-10-31T09:46:43;12.40;99.90
52125;DHT22;38119;52.710;6.398;2022-10-31T09:52:20;12.40;99.90
52125;DHT22;38119;52.710;6.398;2022-10-31T09:54:54;12.40;99.90
52125;DHT22;38119;52.710;6.398;2022-10-31T09:57:28;12.50;99.90
52125;DHT22;38119;52.710;6.398;2022-10-31T09:59:55;12.50;99.90
52125;DHT22;38119;52.710;6.398;2022-10-31T10:02:35;12.50;99.90
52125;DHT22;38119;52.710;6.398;2022-10-31T10:05:14;12.60;99.90
52125;DHT22;38119;52.710;6.398;2022-10-31T10:08:05;12.70;99.90
52125;DHT22;38119;52.710;6.398;2022-10-31T10:10:54;12.80;99.90
52125;DHT22;38119;52.710;6.398;2022-10-31T10:27:12;13.30;99.90
52125;DHT22;38119;52.710;6.398;2022-10-31T10:29:56;13.40;99.90
52125;DHT22;38119;52.710;6.398;2022-10-31T10:32:33;13.60;99.90
52125;DHT22;38119;52.710;6.398;2022-10-31T10:35:27;13.70;99.90
52125;DHT22;38119;52.710;6.398;2022-10-31T10:38:12;13.70;99.90
52125;DHT22;38119;52.710;6.398;2022-10-31T10:40:39;13.80;99.90
52125;DHT22;38119;52.710;6.398;2022-10-31T10:43:37;13.80;99.90
52125;DHT22;38119;52.710;6.398;2022-10-31T10:46:17;13.90;99.90
52125;DHT22;38119;52.710;6.398;2022-10-31T10:55:03;14.00;99.90
52125;DHT22;38119;52.710;6.398;2022-10-31T10:57:55;14.00;99.90
52125;DHT22;38119;52.710;6.398;2022-10-31T11:00:31;14.10;99.90
52125;DHT22;38119;52.710;6.398;2022-10-31T11:02:57;14.10;99.90
52125;DHT22;38119;52.710;6.398;2022-10-31T11:05:29;14.20;99.90
52125;DHT22;38119;52.710;6.398;2022-10-31T11:07:55;14.10;99.90
52125;DHT22;38119;52.710;6.398;2022-10-31T11:10:21;14.20;99.90
52125;DHT22;38119;52.710;6.398;2022-10-31T11:13:15;14.20;99.90
52125;DHT22;38119;52.710;6.398;2022-10-31T11:18:25;14.20;99.90
52125;DHT22;38119;52.710;6.398;2022-10-31T11:20:54;14.30;99.90
52125;DHT22;38119;52.710;6.398;2022-10-31T11:23:22;14.30;99.90
52125;DHT22;38119;52.710;6.398;2022-10-31T11:25:54;14.30;99.90
52125;DHT22;38119;52.710;6.398;2022-10-31T11:28:21;14.40;99.90
52125;DHT22;38119;52.710;6.398;2022-10-31T11:30:49;14.40;99.90
52125;DHT22;38119;52.710;6.398;2022-10-31T11:33:35;14.40;99.90
52125;DHT22;38119;52.710;6.398;2022-10-31T11:36:14;14.50;99.90
52125;DHT22;38119;52.710;6.398;2022-10-31T11:38:42;14.50;99.90
52125;DHT22;38119;52.710;6.398;2022-10-31T11:41:17;14.60;99.90
52125;DHT22;38119;52.710;6.398;2022-10-31T11:43:50;14.70;99.90
52125;DHT22;38119;52.710;6.398;2022-10-31T11:46:30;14.70;99.90
52125;DHT22;38119;52.710;6.398;2022-10-31T11:48:57;14.80;99.90
52125;DHT22;38119;52.710;6.398;2022-10-31T11:51:26;14.80;99.90
52125;DHT22;38119;52.710;6.398;2022-10-31T11:53:55;14.90;99.90
52125;DHT22;38119;52.710;6.398;2022-10-31T11:56:22;15.00;99.90
52125;DHT22;38119;52.710;6.398;2022-10-31T11:59:03;15.10;99.90
52125;DHT22;38119;52.710;6.398;2022-10-31T12:01:31;15.20;99.90
52125;DHT22;38119;52.710;6.398;2022-10-31T12:04:09;15.20;99.90
52125;DHT22;38119;52.710;6.398;2022-10-31T12:06:37;15.30;99.90
52125;DHT22;38119;52.710;6.398;2022-10-31T12:09:18;15.30;99.90
52125;DHT22;38119;52.710;6.398;2022-10-31T12:17:19;15.10;99.90
52125;DHT22;38119;52.710;6.398;2022-10-31T12:26:14;15.10;99.90
52125;DHT22;38119;52.710;6.398;2022-10-31T12:28:45;15.10;99.90
52125;DHT22;38119;52.710;6.398;2022-10-31T12:31:17;15.00;99.90
52125;DHT22;38119;52.710;6.398;2022-10-31T12:34:12;15.00;99.90
52125;DHT22;38119;52.710;6.398;2022-10-31T12:48:04;15.00;99.90
52125;DHT22;38119;52.710;6.398;2022-10-31T12:59:01;15.10;99.90
52125;DHT22;38119;52.710;6.398;2022-10-31T13:01:39;15.20;99.90
52125;DHT22;38119;52.710;6.398;2022-10-31T13:04:39;15.20;99.90
52125;DHT22;38119;52.710;6.398;2022-10-31T13:07:12;15.30;99.90
52125;DHT22;38119;52.710;6.398;2022-10-31T13:09:50;15.40;99.90
52125;DHT22;38119;52.710;6.398;2022-10-31T13:12:20;15.50;99.90
52125;DHT22;38119;52.710;6.398;2022-10-31T13:14:53;15.50;99.90
52125;DHT22;38119;52.710;6.398;2022-10-31T13:17:30;15.40;99.90
52125;DHT22;38119;52.710;6.398;2022-10-31T13:20:27;15.50;99.90
52125;DHT22;38119;52.710;6.398;2022-10-31T13:22:56;15.50;99.90
52125;DHT22;38119;52.710;6.398;2022-10-31T13:25:29;15.40;99.90
52125;DHT22;38119;52.710;6.398;2022-10-31T13:30:43;15.40;99.90
52125;DHT22;38119;52.710;6.398;2022-10-31T13:33:38;15.40;99.90
52125;DHT22;38119;52.710;6.398;2022-10-31T13:39:22;15.40;99.90
52125;DHT22;38119;52.710;6.398;2022-10-31T13:44:46;15.40;99.90
52125;DHT22;38119;52.710;6.398;2022-10-31T13:47:27;15.40;99.90
52125;DHT22;38119;52.710;6.398;2022-10-31T13:52:43;15.40;99.90
52125;DHT22;38119;52.710;6.398;2022-10-31T13:55:45;15.40;99.90
52125;DHT22;38119;52.710;6.398;2022-10-31T13:58:25;15.40;99.90
52125;DHT22;38119;52.710;6.398;2022-10-31T14:01:12;15.40;99.90
52125;DHT22;38119;52.710;6.398;2022-10-31T14:03:39;15.40;99.90
52125;DHT22;38119;52.710;6.398;2022-10-31T14:06:08;15.40;99.90
52125;DHT22;38119;52.710;6.398;2022-10-31T14:08:36;15.40;99.90
52125;DHT22;38119;52.710;6.398;2022-10-31T14:11:03;15.40;99.90
52125;DHT22;38119;52.710;6.398;2022-10-31T14:13:43;15.30;99.90
52125;DHT22;38119;52.710;6.398;2022-10-31T14:16:25;15.30;99.90
52125;DHT22;38119;52.710;6.398;2022-10-31T14:18:59;15.30;99.90
52125;DHT22;38119;52.710;6.398;2022-10-31T14:21:26;15.30;99.90
52125;DHT22;38119;52.710;6.398;2022-10-31T14:23:53;15.30;99.90
52125;DHT22;38119;52.710;6.398;2022-10-31T14:28:53;15.20;99.90
52125;DHT22;38119;52.710;6.398;2022-10-31T14:31:39;15.20;99.90
52125;DHT22;38119;52.710;6.398;2022-10-31T14:36:49;15.20;99.90
52125;DHT22;38119;52.710;6.398;2022-10-31T14:39:18;15.20;99.90
52125;DHT22;38119;52.710;6.398;2022-10-31T14:44:44;15.20;99.90
52125;DHT22;38119;52.710;6.398;2022-10-31T14:47:43;15.20;99.90
52125;DHT22;38119;52.710;6.398;2022-10-31T14:52:55;15.10;99.90
52125;DHT22;38119;52.710;6.398;2022-10-31T14:55:23;15.10;99.90
52125;DHT22;38119;52.710;6.398;2022-10-31T14:58:06;15.10;99.90
52125;DHT22;38119;52.710;6.398;2022-10-31T15:00:33;15.10;99.90
52125;DHT22;38119;52.710;6.398;2022-10-31T15:05:30;15.00;99.90
52125;DHT22;38119;52.710;6.398;2022-10-31T15:07:57;15.00;99.90
52125;DHT22;38119;52.710;6.398;2022-10-31T15:10:29;15.00;99.90
52125;DHT22;38119;52.710;6.398;2022-10-31T15:12:55;14.90;99.90
52125;DHT22;38119;52.710;6.398;2022-10-31T15:15:26;15.00;99.90
52125;DHT22;38119;52.710;6.398;2022-10-31T15:17:59;14.90;99.90
52125;DHT22;38119;52.710;6.398;2022-10-31T15:20:27;14.90;99.90
52125;DHT22;38119;52.710;6.398;2022-10-31T15:22:56;14.90;99.90
52125;DHT22;38119;52.710;6.398;2022-10-31T15:25:24;14.80;99.90
52125;DHT22;38119;52.710;6.398;2022-10-31T15:27:52;14.80;99.90
52125;DHT22;38119;52.710;6.398;2022-10-31T15:30:28;14.80;99.90
52125;DHT22;38119;52.710;6.398;2022-10-31T15:32:54;14.80;99.90
52125;DHT22;38119;52.710;6.398;2022-10-31T15:35:28;14.70;99.90
52125;DHT22;38119;52.710;6.398;2022-10-31T15:37:56;14.70;99.90
52125;DHT22;38119;52.710;6.398;2022-10-31T15:40:24;14.60;99.90
52125;DHT22;38119;52.710;6.398;2022-10-31T15:42:59;14.60;99.90
52125;DHT22;38119;52.710;6.398;2022-10-31T15:45:27;14.60;99.90
52125;DHT22;38119;52.710;6.398;2022-10-31T15:50:55;14.50;99.90
52125;DHT22;38119;52.710;6.398;2022-10-31T15:53:36;14.50;99.90
52125;DHT22;38119;52.710;6.398;2022-10-31T15:56:08;14.50;99.90
52125;DHT22;38119;52.710;6.398;2022-10-31T15:58:42;14.40;99.90
52125;DHT22;38119;52.710;6.398;2022-10-31T16:06:29;14.40;99.90
52125;DHT22;38119;52.710;6.398;2022-10-31T16:08:55;14.40;99.90
52125;DHT22;38119;52.710;6.398;2022-10-31T16:11:41;14.40;99.90
52125;DHT22;38119;52.710;6.398;2022-10-31T16:14:18;14.30;99.90
52125;DHT22;38119;52.710;6.398;2022-10-31T16:16:49;14.30;99.90
52125;DHT22;38119;52.710;6.398;2022-10-31T16:19:27;14.30;99.90
52125;DHT22;38119;52.710;6.398;2022-10-31T16:22:04;14.30;99.90
52125;DHT22;38119;52.710;6.398;2022-10-31T16:24:32;14.30;99.90
52125;DHT22;38119;52.710;6.398;2022-10-31T16:27:07;14.30;99.90
52125;DHT22;38119;52.710;6.398;2022-10-31T16:29:45;14.20;99.90
52125;DHT22;38119;52.710;6.398;2022-10-31T16:32:27;14.30;99.90
52125;DHT22;38119;52.710;6.398;2022-10-31T16:37:38;14.20;99.90
52125;DHT22;38119;52.710;6.398;2022-10-31T16:40:04;14.20;99.90
52125;DHT22;38119;52.710;6.398;2022-10-31T16:42:30;14.30;99.90
52125;DHT22;38119;52.710;6.398;2022-10-31T16:44:56;14.30;99.90
52125;DHT22;38119;52.710;6.398;2022-10-31T16:47:21;14.30;99.90
52125;DHT22;38119;52.710;6.398;2022-10-31T16:49:48;14.20;99.90
52125;DHT22;38119;52.710;6.398;2022-10-31T16:52:16;14.20;99.90
52125;DHT22;38119;52.710;6.398;2022-10-31T16:54:45;14.20;99.90
52125;DHT22;38119;52.710;6.398;2022-10-31T16:57:18;14.20;99.90
52125;DHT22;38119;52.710;6.398;2022-10-31T16:59:49;14.20;99.90
52125;DHT22;38119;52.710;6.398;2022-10-31T17:02:16;14.20;99.90
52125;DHT22;38119;52.710;6.398;2022-10-31T17:04:42;14.20;99.90
52125;DHT22;38119;52.710;6.398;2022-10-31T17:07:08;14.20;99.90
52125;DHT22;38119;52.710;6.398;2022-10-31T17:09:34;14.20;99.90
52125;DHT22;38119;52.710;6.398;2022-10-31T17:11:59;14.20;99.90
52125;DHT22;38119;52.710;6.398;2022-10-31T17:14:25;14.20;99.90
52125;DHT22;38119;52.710;6.398;2022-10-31T17:16:51;14.20;99.90
52125;DHT22;38119;52.710;6.398;2022-10-31T17:19:16;14.20;99.90
52125;DHT22;38119;52.710;6.398;2022-10-31T17:21:42;14.10;99.90
52125;DHT22;38119;52.710;6.398;2022-10-31T17:24:12;14.20;99.90
52125;DHT22;38119;52.710;6.398;2022-10-31T17:26:38;14.20;99.90
52125;DHT22;38119;52.710;6.398;2022-10-31T17:29:03;14.20;99.90
52125;DHT22;38119;52.710;6.398;2022-10-31T17:31:31;14.20;99.90
52125;DHT22;38119;52.710;6.398;2022-10-31T17:33:58;14.20;99.90
52125;DHT22;38119;52.710;6.398;2022-10-31T17:36:24;14.20;99.90
52125;DHT22;38119;52.710;6.398;2022-10-31T17:38:50;14.20;99.90
52125;DHT22;38119;52.710;6.398;2022-10-31T17:41:15;14.20;99.90
52125;DHT22;38119;52.710;6.398;2022-10-31T17:43:41;14.20;99.90
52125;DHT22;38119;52.710;6.398;2022-10-31T17:46:07;14.20;99.90
52125;DHT22;38119;52.710;6.398;2022-10-31T17:48:36;14.20;99.90
52125;DHT22;38119;52.710;6.398;2022-10-31T17:51:03;14.20;99.90
52125;DHT22;38119;52.710;6.398;2022-10-31T17:53:30;14.20;99.90
52125;DHT22;38119;52.710;6.398;2022-10-31T17:56:05;14.20;99.90
52125;DHT22;38119;52.710;6.398;2022-10-31T17:58:31;14.20;99.90